Airfield :
LOGIN :

Register | Disclaimer

   EN    FR    IT 

 










Legend :    VFR   Marginal VFR   IFR   Intensive IFR   Very Intensive IFR
Visi :
Ceiling :
>= 8 km
>= 3000ft
5 to 8 km
1000 to 3000 ft
1500m to 5 km
500 to 1000 ft
800 to 1500m
200 to 500 ft
< 800m
< 200 ft
Symbols :   Thunderstorms  Fog  Heavy snow  Heavy precipitations  Wind > 20 kt
SIGMETs :     Misc.  Thunderstorms  Icing  Turbulence  Mountain Waves  Volcanic Ashes







- Airport Elevation : 788 ft
- IATA code : DCM
- Download approach charts


LFCK - Castres-Mazamet

CURRENT METAR :
  • 210630Z AUTO 02003KT 9999 ///TCU 11/09 Q1018 BECMG 12010KT

EXPIRED METARs :
  • 210600Z AUTO 00000KT CAVOK 11/09 Q1018 TEMPO SCT020TCU BKN060 BECMG 12010KT
  • 210530Z AUTO VRB03KT CAVOK 10/09 Q1018
  • 210500Z AUTO 18006KT CAVOK 10/09 Q1018
  • 210430Z AUTO 07005KT CAVOK 11/08 Q1018
  • 210400Z AUTO VRB02KT 9999 -RA NSC 11/08 Q1019

TAF TAF LFCK
Valid from the 21 at 06:00 until the 21 at 15:00 UTC


210500Z 2106/2115 12010KT CAVOK
PROB30
TEMPO 2106/2115 -RA SCT020TCU BKN060
TEMPO 2112/2115 12015G30KT
No reported NOTAMs for that airfield.



MET'MAP, your aeronautical weather chart ! - Copyright ORBIFLY December 2007 - Disclaimer

ORBIFLY MET'MAP TEAM :

Programming & Development : Alexandra Zaïnal
Concept & Development : Baudouin d'Aumeries
Co-Development & Prog : Marc-Olivier Méhu
Technical & hardware support : Manuel Goepfert

Contact : metmap@orbifly.com




SOURCES & CREDITS :

   NOAA